ΕΜΥ, Εθνική Μετεωρολογική Υπηρεσία - Δελτία Καιρού, Προγνώσεις

ΑΕΡΟΝΑΥΤΙΛΙΑ

GREEK AIRPORTS CODES

LGLE 251500Z AUTO 10008KT //// -RA ////// 19/09 Q1015 RE// RMK 0.0MM=

EUROPEAN AIRPORTS CODES

LFPO 251500Z 14010KT 4500 -RA BR BKN012 08/06 Q0993 NOSIG=